Check out our new PWSWeather beta!
PWSweather.com
Personal Weather Stations
Station Observations

ChardChardGB

Lat: 50.877408, Lon: -2.94964741

Elevation: 341

Station Type: WS3083

http://www.merriott-astro.co.uk/weather/index.htm

High Low Average
Temperature 48.0°F8.9°C 43.2°F6.2°C 46.2°F7.9°C
Dew Point 42.6°F5.9°C 36.8°F2.7°C 41.5°F5.3°C
Winds 20.6 mph 33.2 kmh 1.3 mph 2.1 kmh 14.0 mph WSW22.5 kmh WSW
Wind Gusts 28.9 mph46.5 kmh 2.2 mph3.5 kmh 15.0 mph24.1 kmh
Humidity 90% 71% 84%
Pressure 29.11 in985.8 mb 28.40 in961.7 mb -
Precipitation 0.73 in18.5 mm - -
Hour Temp Dew Point Humidity Winds Wind Gusts Pressure Precip Precip Rate Daily Precip Total
12:00 AM 45.7°F7.6°C 39.5°F4.2°C 79% 16.6 mph SW26.7 kmh SW 24.4 mph39.3 kmh 28.80 in975.3 mb 0.05 in1.3 mm 0.00 in0.0 mm 0.05 in1.3 mm
12:10 AM 45.7°F7.6°C 39.9°F4.4°C 80% 17.5 mph S28.2 kmh S 23.5 mph37.8 kmh 28.78 in974.6 mb 0.07 in1.8 mm 0.12 in3.0 mm 0.02 in0.5 mm
12:20 AM 45.7°F7.6°C 40.2°F4.6°C 81% 18.9 mph S30.4 kmh S 25.1 mph40.4 kmh 28.76 in973.9 mb 0.09 in2.3 mm 0.12 in3.0 mm 0.05 in1.3 mm
12:30 AM 45.5°F7.5°C 40.0°F4.4°C 81% 19.3 mph S31.1 kmh S 25.1 mph40.4 kmh 28.75 in973.6 mb 0.13 in3.3 mm 0.24 in6.1 mm 0.08 in2.0 mm
12:40 AM 45.3°F7.4°C 41.7°F5.4°C 87% 19.6 mph SW31.5 kmh SW 24.4 mph39.3 kmh 28.74 in973.2 mb 0.15 in3.8 mm 0.12 in3.0 mm 0.12 in3.0 mm
12:50 AM 45.1°F7.3°C 41.5°F5.3°C 87% 14.8 mph S23.8 kmh S 23.5 mph37.8 kmh 28.71 in972.2 mb 0.18 in4.6 mm 0.18 in4.6 mm 0.15 in3.8 mm
01:00 AM 45.1°F7.3°C 41.8°F5.4°C 88% 15.5 mph S24.9 kmh S 21.3 mph34.3 kmh 28.71 in972.2 mb 0.21 in5.3 mm 0.04 in1.0 mm 0.21 in5.3 mm
01:10 AM 45.0°F7.2°C 41.9°F5.5°C 89% 15.0 mph SSW24.1 kmh SSW 19.0 mph30.6 kmh 28.69 in971.6 mb 0.24 in6.1 mm 0.18 in4.6 mm 0.26 in6.6 mm
01:20 AM 45.0°F7.2°C 42.2°F5.7°C 90% 16.3 mph SSW26.2 kmh SSW 23.5 mph37.8 kmh 28.66 in970.5 mb 0.24 in6.1 mm 0.00 in0.0 mm 0.30 in7.6 mm
01:30 AM 45.1°F7.3°C 42.4°F5.8°C 90% 17.3 mph S27.8 kmh S 24.4 mph39.3 kmh 28.64 in969.9 mb 0.24 in6.1 mm 0.00 in0.0 mm 0.33 in8.4 mm
01:40 AM 45.1°F7.3°C 42.4°F5.8°C 90% 14.9 mph SSW24.0 kmh SSW 18.3 mph29.5 kmh 28.62 in969.2 mb 0.24 in6.1 mm 0.00 in0.0 mm 0.35 in8.9 mm
01:50 AM 45.3°F7.4°C 42.6°F5.9°C 90% 15.4 mph S24.8 kmh S 19.0 mph30.6 kmh 28.61 in968.8 mb 0.22 in5.6 mm 0.00 in0.0 mm 0.38 in9.7 mm
02:00 AM 45.7°F7.6°C 41.4°F5.2°C 85% 17.0 mph SW27.4 kmh SW 23.5 mph37.8 kmh 28.59 in968.2 mb 0.18 in4.6 mm 0.00 in0.0 mm 0.40 in10.2 mm
02:10 AM 46.0°F7.8°C 41.8°F5.4°C 85% 19.7 mph SSW31.7 kmh SSW 28.9 mph46.5 kmh 28.56 in967.2 mb 0.18 in4.6 mm 0.00 in0.0 mm 0.44 in11.2 mm
02:20 AM 46.2°F7.9°C 42.3°F5.7°C 86% 19.6 mph SSW31.5 kmh SSW 28.2 mph45.4 kmh 28.56 in967.2 mb 0.17 in4.3 mm 0.00 in0.0 mm 0.46 in11.7 mm
02:30 AM 46.4°F8.0°C 42.1°F5.6°C 85% 17.9 mph SW28.8 kmh SW 24.4 mph39.3 kmh 28.54 in966.5 mb 0.17 in4.3 mm 0.00 in0.0 mm 0.50 in12.7 mm
02:40 AM 46.4°F8.0°C 42.4°F5.8°C 86% 18.5 mph SSW29.8 kmh SSW 23.5 mph37.8 kmh 28.54 in966.5 mb 0.25 in6.4 mm 0.48 in12.2 mm 0.60 in15.2 mm
02:50 AM 46.2°F7.9°C 42.3°F5.7°C 86% 20.6 mph WSW33.2 kmh WSW 28.2 mph45.4 kmh 28.60 in968.5 mb 0.35 in8.9 mm 0.60 in15.2 mm 0.73 in18.5 mm
03:00 AM 46.2°F7.9°C 42.3°F5.7°C 86% 16.7 mph WSW26.9 kmh WSW 16.8 mph27.0 kmh 28.58 in967.8 mb 0.32 in8.1 mm 0.00 in0.0 mm 0.73 in18.5 mm
03:10 AM 46.2°F7.9°C 42.3°F5.7°C 86% 16.7 mph WSW26.9 kmh WSW 16.8 mph27.0 kmh 28.57 in967.5 mb 0.28 in7.1 mm 0.00 in0.0 mm 0.73 in18.5 mm
03:20 AM 46.2°F7.9°C 42.3°F5.7°C 86% 16.7 mph WSW26.9 kmh WSW 16.8 mph27.0 kmh 28.53 in966.1 mb 0.27 in6.9 mm 0.00 in0.0 mm 0.73 in18.5 mm
03:30 AM 46.2°F7.9°C 42.3°F5.7°C 86% 16.7 mph WSW26.9 kmh WSW 16.8 mph27.0 kmh 28.54 in966.5 mb 0.21 in5.3 mm 0.00 in0.0 mm 0.73 in18.5 mm
03:40 AM 46.2°F7.9°C 42.3°F5.7°C 86% 16.7 mph WSW26.9 kmh WSW 16.8 mph27.0 kmh 28.52 in965.8 mb 0.13 in3.3 mm 0.00 in0.0 mm 0.73 in18.5 mm
03:50 AM 46.2°F7.9°C 42.3°F5.7°C 86% 16.7 mph WSW26.9 kmh WSW 16.8 mph27.0 kmh 28.56 in967.2 mb 0.00 in0.0 mm 0.00 in0.0 mm 0.73 in18.5 mm
04:00 AM 46.2°F7.9°C 42.3°F5.7°C 86% 16.7 mph WSW26.9 kmh WSW 16.8 mph27.0 kmh 28.53 in966.1 mb 0.00 in0.0 mm 0.00 in0.0 mm 0.73 in18.5 mm
04:10 AM 46.2°F7.9°C 42.3°F5.7°C 86% 16.7 mph WSW26.9 kmh WSW 16.8 mph27.0 kmh 28.53 in966.1 mb 0.00 in0.0 mm 0.00 in0.0 mm 0.73 in18.5 mm
04:20 AM 46.2°F7.9°C 42.3°F5.7°C 86% 16.7 mph WSW26.9 kmh WSW 16.8 mph27.0 kmh 28.52 in965.8 mb 0.00 in0.0 mm 0.00 in0.0 mm 0.73 in18.5 mm
04:30 AM 46.2°F7.9°C 42.3°F5.7°C 86% 16.7 mph WSW26.9 kmh WSW 16.8 mph27.0 kmh 28.52 in965.8 mb 0.00 in0.0 mm 0.00 in0.0 mm 0.73 in18.5 mm
04:40 AM 46.2°F7.9°C 42.3°F5.7°C 86% 16.7 mph WSW26.9 kmh WSW 16.8 mph27.0 kmh 28.52 in965.8 mb 0.00 in0.0 mm 0.00 in0.0 mm 0.73 in18.5 mm
04:50 AM 46.2°F7.9°C 42.3°F5.7°C 86% 16.7 mph WSW26.9 kmh WSW 16.8 mph27.0 kmh 28.52 in965.8 mb 0.00 in0.0 mm 0.00 in0.0 mm 0.73 in18.5 mm
05:00 AM 46.2°F7.9°C 42.3°F5.7°C 86% 16.7 mph WSW26.9 kmh WSW 16.8 mph27.0 kmh 28.51 in965.5 mb 0.00 in0.0 mm 0.00 in0.0 mm 0.73 in18.5 mm
05:10 AM 46.2°F7.9°C 42.3°F5.7°C 86% 16.7 mph WSW26.9 kmh WSW 16.8 mph27.0 kmh 28.51 in965.5 mb 0.00 in0.0 mm 0.00 in0.0 mm 0.73 in18.5 mm
05:20 AM 46.2°F7.9°C 42.3°F5.7°C 86% 16.7 mph WSW26.9 kmh WSW 16.8 mph27.0 kmh 28.50 in965.1 mb 0.00 in0.0 mm 0.00 in0.0 mm 0.73 in18.5 mm
05:30 AM 46.2°F7.9°C 42.3°F5.7°C 86% 16.7 mph WSW26.9 kmh WSW 16.8 mph27.0 kmh 28.49 in964.8 mb 0.00 in0.0 mm 0.00 in0.0 mm 0.73 in18.5 mm
05:40 AM 46.2°F7.9°C 42.3°F5.7°C 86% 16.7 mph WSW26.9 kmh WSW 16.8 mph27.0 kmh 28.48 in964.4 mb 0.00 in0.0 mm 0.00 in0.0 mm 0.73 in18.5 mm
05:50 AM 46.2°F7.9°C 42.3°F5.7°C 86% 16.7 mph WSW26.9 kmh WSW 16.8 mph27.0 kmh 28.48 in964.4 mb 0.00 in0.0 mm 0.00 in0.0 mm 0.73 in18.5 mm
06:00 AM 46.2°F7.9°C 42.3°F5.7°C 86% 16.7 mph WSW26.9 kmh WSW 16.8 mph27.0 kmh 28.46 in963.8 mb 0.00 in0.0 mm 0.00 in0.0 mm 0.73 in18.5 mm
06:10 AM 46.2°F7.9°C 42.3°F5.7°C 86% 16.7 mph WSW26.9 kmh WSW 16.8 mph27.0 kmh 28.46 in963.8 mb 0.00 in0.0 mm 0.00 in0.0 mm 0.73 in18.5 mm
06:20 AM 46.2°F7.9°C 42.3°F5.7°C 86% 16.7 mph WSW26.9 kmh WSW 16.8 mph27.0 kmh 28.46 in963.8 mb 0.00 in0.0 mm 0.00 in0.0 mm 0.73 in18.5 mm
06:30 AM 46.2°F7.9°C 42.3°F5.7°C 86% 16.7 mph WSW26.9 kmh WSW 16.8 mph27.0 kmh 28.45 in963.4 mb 0.00 in0.0 mm 0.00 in0.0 mm 0.73 in18.5 mm
06:40 AM 46.2°F7.9°C 42.3°F5.7°C 86% 16.7 mph WSW26.9 kmh WSW 16.8 mph27.0 kmh 28.44 in963.1 mb 0.00 in0.0 mm 0.00 in0.0 mm 0.73 in18.5 mm
06:50 AM 46.2°F7.9°C 42.3°F5.7°C 86% 16.7 mph WSW26.9 kmh WSW 16.8 mph27.0 kmh 28.45 in963.4 mb 0.00 in0.0 mm 0.00 in0.0 mm 0.73 in18.5 mm
07:00 AM 46.2°F7.9°C 42.3°F5.7°C 86% 16.7 mph WSW26.9 kmh WSW 16.8 mph27.0 kmh 28.44 in963.1 mb 0.00 in0.0 mm 0.00 in0.0 mm 0.73 in18.5 mm
07:10 AM 46.2°F7.9°C 42.3°F5.7°C 86% 16.7 mph WSW26.9 kmh WSW 16.8 mph27.0 kmh 28.44 in963.1 mb 0.00 in0.0 mm 0.00 in0.0 mm 0.73 in18.5 mm
07:20 AM 46.2°F7.9°C 42.3°F5.7°C 86% 16.7 mph WSW26.9 kmh WSW 16.8 mph27.0 kmh 28.44 in963.1 mb 0.00 in0.0 mm 0.00 in0.0 mm 0.73 in18.5 mm
07:30 AM 46.2°F7.9°C 42.3°F5.7°C 86% 16.7 mph WSW26.9 kmh WSW 16.8 mph27.0 kmh 28.44 in963.1 mb 0.00 in0.0 mm 0.00 in0.0 mm 0.73 in18.5 mm
07:40 AM 46.2°F7.9°C 42.3°F5.7°C 86% 16.7 mph WSW26.9 kmh WSW 16.8 mph27.0 kmh 28.45 in963.4 mb 0.00 in0.0 mm 0.00 in0.0 mm 0.73 in18.5 mm
07:50 AM 46.2°F7.9°C 42.3°F5.7°C 86% 16.7 mph WSW26.9 kmh WSW 16.8 mph27.0 kmh 28.44 in963.1 mb 0.00 in0.0 mm 0.00 in0.0 mm 0.73 in18.5 mm
08:00 AM 46.2°F7.9°C 42.3°F5.7°C 86% 16.7 mph WSW26.9 kmh WSW 16.8 mph27.0 kmh 28.43 in962.8 mb 0.00 in0.0 mm 0.00 in0.0 mm 0.73 in18.5 mm
08:10 AM 46.2°F7.9°C 42.3°F5.7°C 86% 16.7 mph WSW26.9 kmh WSW 16.8 mph27.0 kmh 28.44 in963.1 mb 0.00 in0.0 mm 0.00 in0.0 mm 0.73 in18.5 mm
08:20 AM 46.2°F7.9°C 42.3°F5.7°C 86% 16.7 mph WSW26.9 kmh WSW 16.8 mph27.0 kmh 28.45 in963.4 mb 0.00 in0.0 mm 0.00 in0.0 mm 0.73 in18.5 mm
08:30 AM 46.2°F7.9°C 42.3°F5.7°C 86% 16.7 mph WSW26.9 kmh WSW 16.8 mph27.0 kmh 28.44 in963.1 mb 0.00 in0.0 mm 0.00 in0.0 mm 0.73 in18.5 mm
08:40 AM 46.2°F7.9°C 42.3°F5.7°C 86% 16.7 mph WSW26.9 kmh WSW 16.8 mph27.0 kmh 28.43 in962.8 mb 0.00 in0.0 mm 0.00 in0.0 mm 0.73 in18.5 mm
08:50 AM 46.2°F7.9°C 42.3°F5.7°C 86% 16.7 mph WSW26.9 kmh WSW 16.8 mph27.0 kmh 28.42 in962.4 mb 0.00 in0.0 mm 0.00 in0.0 mm 0.73 in18.5 mm
09:00 AM 46.2°F7.9°C 42.3°F5.7°C 86% 16.7 mph WSW26.9 kmh WSW 16.8 mph27.0 kmh 28.42 in962.4 mb 0.00 in0.0 mm 0.00 in0.0 mm 0.73 in18.5 mm
09:10 AM 46.2°F7.9°C 42.3°F5.7°C 86% 16.7 mph WSW26.9 kmh WSW 16.8 mph27.0 kmh 28.42 in962.4 mb 0.00 in0.0 mm 0.00 in0.0 mm 0.73 in18.5 mm
09:20 AM 46.2°F7.9°C 42.3°F5.7°C 86% 16.7 mph WSW26.9 kmh WSW 16.8 mph27.0 kmh 28.41 in962.1 mb 0.00 in0.0 mm 0.00 in0.0 mm 0.73 in18.5 mm
09:30 AM 46.2°F7.9°C 42.3°F5.7°C 86% 16.7 mph WSW26.9 kmh WSW 16.8 mph27.0 kmh 28.41 in962.1 mb 0.00 in0.0 mm 0.00 in0.0 mm 0.73 in18.5 mm
09:40 AM 46.2°F7.9°C 42.3°F5.7°C 86% 16.7 mph WSW26.9 kmh WSW 16.8 mph27.0 kmh 28.40 in961.7 mb 0.00 in0.0 mm 0.00 in0.0 mm 0.73 in18.5 mm
09:50 AM 46.2°F7.9°C 42.3°F5.7°C 86% 16.7 mph WSW26.9 kmh WSW 16.8 mph27.0 kmh 28.40 in961.7 mb 0.00 in0.0 mm 0.00 in0.0 mm 0.73 in18.5 mm
10:00 AM 46.2°F7.9°C 42.3°F5.7°C 86% 16.7 mph WSW26.9 kmh WSW 16.8 mph27.0 kmh 28.40 in961.7 mb 0.00 in0.0 mm 0.00 in0.0 mm 0.73 in18.5 mm
10:10 AM 46.2°F7.9°C 42.3°F5.7°C 86% 16.7 mph WSW26.9 kmh WSW 16.8 mph27.0 kmh 28.40 in961.7 mb 0.00 in0.0 mm 0.00 in0.0 mm 0.73 in18.5 mm
10:20 AM 46.2°F7.9°C 42.3°F5.7°C 86% 16.7 mph WSW26.9 kmh WSW 16.8 mph27.0 kmh 28.40 in961.7 mb 0.00 in0.0 mm 0.00 in0.0 mm 0.73 in18.5 mm
10:30 AM 46.2°F7.9°C 42.3°F5.7°C 86% 16.7 mph WSW26.9 kmh WSW 16.8 mph27.0 kmh 28.41 in962.1 mb 0.00 in0.0 mm 0.00 in0.0 mm 0.73 in18.5 mm
10:40 AM 46.2°F7.9°C 42.3°F5.7°C 86% 16.7 mph WSW26.9 kmh WSW 16.8 mph27.0 kmh 28.41 in962.1 mb 0.00 in0.0 mm 0.00 in0.0 mm 0.73 in18.5 mm
10:50 AM 46.2°F7.9°C 42.3°F5.7°C 86% 16.7 mph WSW26.9 kmh WSW 16.8 mph27.0 kmh 28.42 in962.4 mb 0.00 in0.0 mm 0.00 in0.0 mm 0.73 in18.5 mm
11:00 AM 46.2°F7.9°C 42.3°F5.7°C 86% 16.7 mph WSW26.9 kmh WSW 16.8 mph27.0 kmh 28.43 in962.8 mb 0.00 in0.0 mm 0.00 in0.0 mm 0.73 in18.5 mm
11:10 AM 46.2°F7.9°C 42.3°F5.7°C 86% 16.7 mph WSW26.9 kmh WSW 16.8 mph27.0 kmh 28.44 in963.1 mb 0.00 in0.0 mm 0.00 in0.0 mm 0.73 in18.5 mm
11:20 AM 46.2°F7.9°C 42.3°F5.7°C 86% 16.7 mph WSW26.9 kmh WSW 16.8 mph27.0 kmh 28.45 in963.4 mb 0.00 in0.0 mm 0.00 in0.0 mm 0.73 in18.5 mm
11:30 AM 46.2°F7.9°C 42.3°F5.7°C 86% 16.7 mph WSW26.9 kmh WSW 16.8 mph27.0 kmh 28.46 in963.8 mb 0.00 in0.0 mm 0.00 in0.0 mm 0.73 in18.5 mm
11:40 AM 46.2°F7.9°C 42.3°F5.7°C 86% 16.7 mph WSW26.9 kmh WSW 16.8 mph27.0 kmh 28.47 in964.1 mb 0.00 in0.0 mm 0.00 in0.0 mm 0.73 in18.5 mm
11:50 AM 46.2°F7.9°C 42.3°F5.7°C 86% 16.7 mph WSW26.9 kmh WSW 16.8 mph27.0 kmh 28.48 in964.4 mb 0.00 in0.0 mm 0.00 in0.0 mm 0.73 in18.5 mm
12:00 PM 46.2°F7.9°C 42.3°F5.7°C 86% 16.7 mph WSW26.9 kmh WSW 16.8 mph27.0 kmh 28.48 in964.4 mb 0.00 in0.0 mm 0.00 in0.0 mm 0.73 in18.5 mm
12:10 PM 46.2°F7.9°C 42.3°F5.7°C 86% 16.7 mph WSW26.9 kmh WSW 16.8 mph27.0 kmh 28.51 in965.5 mb 0.00 in0.0 mm 0.00 in0.0 mm 0.73 in18.5 mm
12:20 PM 46.2°F7.9°C 42.3°F5.7°C 86% 16.7 mph WSW26.9 kmh WSW 16.8 mph27.0 kmh 28.51 in965.5 mb 0.00 in0.0 mm 0.00 in0.0 mm 0.73 in18.5 mm
12:30 PM 46.2°F7.9°C 42.3°F5.7°C 86% 16.7 mph WSW26.9 kmh WSW 16.8 mph27.0 kmh 28.52 in965.8 mb 0.00 in0.0 mm 0.00 in0.0 mm 0.73 in18.5 mm
12:40 PM 46.2°F7.9°C 42.3°F5.7°C 86% 16.7 mph WSW26.9 kmh WSW 16.8 mph27.0 kmh 28.52 in965.8 mb 0.00 in0.0 mm 0.00 in0.0 mm 0.73 in18.5 mm
12:50 PM 46.2°F7.9°C 42.3°F5.7°C 86% 16.7 mph WSW26.9 kmh WSW 16.8 mph27.0 kmh 28.53 in966.1 mb 0.00 in0.0 mm 0.00 in0.0 mm 0.73 in18.5 mm
01:00 PM 46.2°F7.9°C 42.3°F5.7°C 86% 16.7 mph WSW26.9 kmh WSW 16.8 mph27.0 kmh 28.54 in966.5 mb 0.00 in0.0 mm 0.00 in0.0 mm 0.73 in18.5 mm
01:10 PM 46.2°F7.9°C 42.3°F5.7°C 86% 16.7 mph WSW26.9 kmh WSW 16.8 mph27.0 kmh 28.56 in967.2 mb 0.00 in0.0 mm 0.00 in0.0 mm 0.73 in18.5 mm
01:20 PM 46.2°F7.9°C 42.3°F5.7°C 86% 16.7 mph WSW26.9 kmh WSW 16.8 mph27.0 kmh 28.56 in967.2 mb 0.00 in0.0 mm 0.00 in0.0 mm 0.73 in18.5 mm
01:30 PM 46.2°F7.9°C 42.3°F5.7°C 86% 16.7 mph WSW26.9 kmh WSW 16.8 mph27.0 kmh 28.57 in967.5 mb 0.00 in0.0 mm 0.00 in0.0 mm 0.73 in18.5 mm
01:40 PM 46.2°F7.9°C 42.3°F5.7°C 86% 16.7 mph WSW26.9 kmh WSW 16.8 mph27.0 kmh 28.57 in967.5 mb 0.00 in0.0 mm 0.00 in0.0 mm 0.73 in18.5 mm
01:50 PM 46.2°F7.9°C 42.3°F5.7°C 86% 16.7 mph WSW26.9 kmh WSW 16.8 mph27.0 kmh 28.59 in968.2 mb 0.00 in0.0 mm 0.00 in0.0 mm 0.73 in18.5 mm
02:00 PM 46.2°F7.9°C 42.3°F5.7°C 86% 16.7 mph WSW26.9 kmh WSW 16.8 mph27.0 kmh 28.59 in968.2 mb 0.00 in0.0 mm 0.00 in0.0 mm 0.73 in18.5 mm
02:10 PM 46.2°F7.9°C 42.3°F5.7°C 86% 16.7 mph WSW26.9 kmh WSW 16.8 mph27.0 kmh 28.61 in968.8 mb 0.00 in0.0 mm 0.00 in0.0 mm 0.73 in18.5 mm
02:20 PM 46.2°F7.9°C 42.3°F5.7°C 86% 16.7 mph WSW26.9 kmh WSW 16.8 mph27.0 kmh 28.62 in969.2 mb 0.00 in0.0 mm 0.00 in0.0 mm 0.73 in18.5 mm
02:30 PM 46.2°F7.9°C 42.3°F5.7°C 86% 16.7 mph WSW26.9 kmh WSW 16.8 mph27.0 kmh 28.63 in969.5 mb 0.00 in0.0 mm 0.00 in0.0 mm 0.73 in18.5 mm
02:40 PM 46.2°F7.9°C 42.3°F5.7°C 86% 16.7 mph WSW26.9 kmh WSW 16.8 mph27.0 kmh 28.64 in969.9 mb 0.00 in0.0 mm 0.00 in0.0 mm 0.73 in18.5 mm
02:50 PM 46.2°F7.9°C 42.3°F5.7°C 86% 16.7 mph WSW26.9 kmh WSW 16.8 mph27.0 kmh 28.65 in970.2 mb 0.00 in0.0 mm 0.00 in0.0 mm 0.73 in18.5 mm
03:00 PM 46.2°F7.9°C 42.3°F5.7°C 86% 16.7 mph WSW26.9 kmh WSW 16.8 mph27.0 kmh 28.66 in970.5 mb 0.00 in0.0 mm 0.00 in0.0 mm 0.73 in18.5 mm
03:10 PM 46.2°F7.9°C 42.3°F5.7°C 86% 16.7 mph WSW26.9 kmh WSW 16.8 mph27.0 kmh 28.66 in970.5 mb 0.00 in0.0 mm 0.00 in0.0 mm 0.73 in18.5 mm
03:20 PM 46.2°F7.9°C 42.3°F5.7°C 86% 16.7 mph WSW26.9 kmh WSW 16.8 mph27.0 kmh 28.68 in971.2 mb 0.00 in0.0 mm 0.00 in0.0 mm 0.73 in18.5 mm
03:30 PM 46.2°F7.9°C 42.3°F5.7°C 86% 16.7 mph WSW26.9 kmh WSW 16.8 mph27.0 kmh 28.69 in971.6 mb 0.00 in0.0 mm 0.00 in0.0 mm 0.73 in18.5 mm
03:40 PM 46.2°F7.9°C 42.3°F5.7°C 86% 16.7 mph WSW26.9 kmh WSW 16.8 mph27.0 kmh 28.70 in971.9 mb 0.00 in0.0 mm 0.00 in0.0 mm 0.73 in18.5 mm
03:50 PM 46.2°F7.9°C 42.3°F5.7°C 86% 16.7 mph WSW26.9 kmh WSW 16.8 mph27.0 kmh 28.71 in972.2 mb 0.00 in0.0 mm 0.00 in0.0 mm 0.73 in18.5 mm
04:00 PM 46.2°F7.9°C 42.3°F5.7°C 86% 16.7 mph WSW26.9 kmh WSW 16.8 mph27.0 kmh 28.72 in972.6 mb 0.00 in0.0 mm 0.00 in0.0 mm 0.73 in18.5 mm
04:10 PM 46.2°F7.9°C 42.3°F5.7°C 86% 16.7 mph WSW26.9 kmh WSW 16.8 mph27.0 kmh 28.74 in973.2 mb 0.00 in0.0 mm 0.00 in0.0 mm 0.73 in18.5 mm
04:20 PM 46.2°F7.9°C 42.3°F5.7°C 86% 16.7 mph WSW26.9 kmh WSW 16.8 mph27.0 kmh 28.74 in973.2 mb 0.00 in0.0 mm 0.00 in0.0 mm 0.73 in18.5 mm
04:30 PM 46.2°F7.9°C 42.3°F5.7°C 86% 16.7 mph WSW26.9 kmh WSW 16.8 mph27.0 kmh 28.75 in973.6 mb 0.00 in0.0 mm 0.00 in0.0 mm 0.73 in18.5 mm
04:40 PM 46.2°F7.9°C 42.3°F5.7°C 86% 16.7 mph WSW26.9 kmh WSW 16.8 mph27.0 kmh 28.77 in974.3 mb 0.00 in0.0 mm 0.00 in0.0 mm 0.73 in18.5 mm
04:50 PM 46.2°F7.9°C 42.3°F5.7°C 86% 16.7 mph WSW26.9 kmh WSW 16.8 mph27.0 kmh 28.78 in974.6 mb 0.00 in0.0 mm 0.00 in0.0 mm 0.73 in18.5 mm
05:00 PM 46.2°F7.9°C 42.3°F5.7°C 86% 16.7 mph WSW26.9 kmh WSW 16.8 mph27.0 kmh 28.79 in974.9 mb 0.00 in0.0 mm 0.00 in0.0 mm 0.73 in18.5 mm
05:10 PM 46.2°F7.9°C 42.3°F5.7°C 86% 16.7 mph WSW26.9 kmh WSW 16.8 mph27.0 kmh 28.80 in975.3 mb 0.00 in0.0 mm 0.00 in0.0 mm 0.73 in18.5 mm
05:20 PM 46.2°F7.9°C 42.3°F5.7°C 86% 16.7 mph WSW26.9 kmh WSW 16.8 mph27.0 kmh 28.82 in976.0 mb 0.00 in0.0 mm 0.00 in0.0 mm 0.73 in18.5 mm
05:30 PM 46.2°F7.9°C 42.3°F5.7°C 86% 16.7 mph WSW26.9 kmh WSW 16.8 mph27.0 kmh 28.84 in976.6 mb 0.00 in0.0 mm 0.00 in0.0 mm 0.73 in18.5 mm
05:40 PM 46.2°F7.9°C 42.3°F5.7°C 86% 16.7 mph WSW26.9 kmh WSW 16.8 mph27.0 kmh 28.84 in976.6 mb 0.00 in0.0 mm 0.00 in0.0 mm 0.73 in18.5 mm
05:50 PM 46.2°F7.9°C 42.3°F5.7°C 86% 16.7 mph WSW26.9 kmh WSW 16.8 mph27.0 kmh 28.85 in977.0 mb 0.00 in0.0 mm 0.00 in0.0 mm 0.73 in18.5 mm
06:00 PM 46.2°F7.9°C 42.3°F5.7°C 86% 16.7 mph WSW26.9 kmh WSW 16.8 mph27.0 kmh 28.86 in977.3 mb 0.00 in0.0 mm 0.00 in0.0 mm 0.73 in18.5 mm
06:10 PM 46.2°F7.9°C 42.3°F5.7°C 86% 16.7 mph WSW26.9 kmh WSW 16.8 mph27.0 kmh 28.87 in977.7 mb 0.00 in0.0 mm 0.00 in0.0 mm 0.73 in18.5 mm
06:20 PM 46.2°F7.9°C 42.3°F5.7°C 86% 16.7 mph WSW26.9 kmh WSW 16.8 mph27.0 kmh 28.88 in978.0 mb 0.00 in0.0 mm 0.00 in0.0 mm 0.73 in18.5 mm
06:30 PM 47.3°F8.5°C 38.4°F3.6°C 71% 4.9 mph NW7.9 kmh NW 6.0 mph9.7 kmh 28.88 in978.0 mb 0.00 in0.0 mm 0.00 in0.0 mm 0.73 in18.5 mm
06:40 PM 47.5°F8.6°C 38.6°F3.7°C 71% 4.8 mph NW7.7 kmh NW 7.6 mph12.2 kmh 28.89 in978.3 mb 0.00 in0.0 mm 0.00 in0.0 mm 0.73 in18.5 mm
06:50 PM 47.5°F8.6°C 38.9°F3.8°C 72% 4.7 mph NW7.6 kmh NW 6.9 mph11.1 kmh 28.90 in978.7 mb 0.00 in0.0 mm 0.00 in0.0 mm 0.73 in18.5 mm
07:00 PM 47.7°F8.7°C 39.1°F3.9°C 72% 6.0 mph W9.7 kmh W 13.0 mph20.9 kmh 28.91 in979.0 mb 0.00 in0.0 mm 0.00 in0.0 mm 0.73 in18.5 mm
07:10 PM 47.8°F8.8°C 39.3°F4.1°C 72% 6.2 mph WNW10.0 kmh WNW 8.3 mph13.4 kmh 28.92 in979.3 mb 0.00 in0.0 mm 0.00 in0.0 mm 0.73 in18.5 mm
07:20 PM 48.0°F8.9°C 39.8°F4.3°C 73% 4.4 mph WNW7.1 kmh WNW 7.6 mph12.2 kmh 28.93 in979.7 mb 0.00 in0.0 mm 0.00 in0.0 mm 0.73 in18.5 mm
07:30 PM 48.0°F8.9°C 39.8°F4.3°C 73% 5.1 mph NW8.2 kmh NW 9.8 mph15.8 kmh 28.93 in979.7 mb 0.00 in0.0 mm 0.00 in0.0 mm 0.73 in18.5 mm
07:40 PM 48.0°F8.9°C 39.8°F4.3°C 73% 4.4 mph W7.1 kmh W 7.6 mph12.2 kmh 28.94 in980.0 mb 0.00 in0.0 mm 0.00 in0.0 mm 0.73 in18.5 mm
07:50 PM 47.8°F8.8°C 39.6°F4.2°C 73% 2.9 mph NW4.7 kmh NW 4.5 mph7.2 kmh 28.95 in980.4 mb 0.00 in0.0 mm 0.00 in0.0 mm 0.73 in18.5 mm
08:00 PM 48.0°F8.9°C 39.8°F4.3°C 73% 2.5 mph WNW4.0 kmh WNW 3.8 mph6.1 kmh 28.97 in981.0 mb 0.00 in0.0 mm 0.00 in0.0 mm 0.73 in18.5 mm
08:10 PM 47.8°F8.8°C 39.6°F4.2°C 73% 2.3 mph WSW3.7 kmh WSW 3.8 mph6.1 kmh 28.97 in981.0 mb 0.00 in0.0 mm 0.00 in0.0 mm 0.73 in18.5 mm
08:20 PM 47.8°F8.8°C 40.0°F4.4°C 74% 2.8 mph NW4.5 kmh NW 5.4 mph8.7 kmh 28.97 in981.0 mb 0.00 in0.0 mm 0.00 in0.0 mm 0.73 in18.5 mm
08:30 PM 48.0°F8.9°C 40.1°F4.5°C 74% 3.8 mph WNW6.1 kmh WNW 5.4 mph8.7 kmh 28.98 in981.4 mb 0.00 in0.0 mm 0.00 in0.0 mm 0.73 in18.5 mm
08:40 PM 48.0°F8.9°C 40.1°F4.5°C 74% 3.6 mph NW5.8 kmh NW 5.4 mph8.7 kmh 28.99 in981.7 mb 0.00 in0.0 mm 0.00 in0.0 mm 0.73 in18.5 mm
08:50 PM 47.8°F8.8°C 40.3°F4.6°C 75% 3.0 mph NW4.8 kmh NW 4.5 mph7.2 kmh 28.99 in981.7 mb 0.00 in0.0 mm 0.00 in0.0 mm 0.73 in18.5 mm
09:00 PM 47.7°F8.7°C 40.5°F4.7°C 76% 5.2 mph WNW8.4 kmh WNW 7.6 mph12.2 kmh 29.00 in982.1 mb 0.00 in0.0 mm 0.00 in0.0 mm 0.73 in18.5 mm
09:10 PM 47.5°F8.6°C 40.6°F4.8°C 77% 3.4 mph NW5.5 kmh NW 3.8 mph6.1 kmh 29.01 in982.4 mb 0.00 in0.0 mm 0.00 in0.0 mm 0.73 in18.5 mm
09:20 PM 47.1°F8.4°C 40.3°F4.6°C 77% 2.6 mph NNW4.2 kmh NNW 3.8 mph6.1 kmh 29.02 in982.7 mb 0.00 in0.0 mm 0.00 in0.0 mm 0.73 in18.5 mm
09:30 PM 46.4°F8.0°C 39.6°F4.2°C 77% 2.3 mph NW3.7 kmh NW 5.4 mph8.7 kmh 29.02 in982.7 mb 0.00 in0.0 mm 0.00 in0.0 mm 0.73 in18.5 mm
09:40 PM 46.0°F7.8°C 39.2°F4.0°C 77% 2.2 mph NNE3.5 kmh NNE 3.8 mph6.1 kmh 29.03 in983.1 mb 0.00 in0.0 mm 0.00 in0.0 mm 0.73 in18.5 mm
09:50 PM 45.9°F7.7°C 39.1°F3.9°C 77% 1.3 mph NW2.1 kmh NW 4.5 mph7.2 kmh 29.05 in983.7 mb 0.00 in0.0 mm 0.00 in0.0 mm 0.73 in18.5 mm
10:00 PM 46.4°F8.0°C 38.9°F3.8°C 75% 3.1 mph NW5.0 kmh NW 4.5 mph7.2 kmh 29.05 in983.7 mb 0.00 in0.0 mm 0.00 in0.0 mm 0.73 in18.5 mm
10:10 PM 46.2°F7.9°C 38.4°F3.6°C 74% 2.5 mph NW4.0 kmh NW 4.5 mph7.2 kmh 29.05 in983.7 mb 0.00 in0.0 mm 0.00 in0.0 mm 0.73 in18.5 mm
10:20 PM 45.9°F7.7°C 38.1°F3.4°C 74% 2.2 mph NW3.5 kmh NW 4.5 mph7.2 kmh 29.06 in984.1 mb 0.00 in0.0 mm 0.00 in0.0 mm 0.73 in18.5 mm
10:30 PM 45.5°F7.5°C 37.7°F3.2°C 74% 2.1 mph NNE3.4 kmh NNE 4.5 mph7.2 kmh 29.07 in984.4 mb 0.00 in0.0 mm 0.00 in0.0 mm 0.73 in18.5 mm
10:40 PM 45.3°F7.4°C 39.5°F4.2°C 80% 1.7 mph ENE2.7 kmh ENE 3.1 mph5.0 kmh 29.07 in984.4 mb 0.00 in0.0 mm 0.00 in0.0 mm 0.73 in18.5 mm
10:50 PM 44.8°F7.1°C 39.3°F4.1°C 81% 1.4 mph S2.3 kmh S 2.2 mph3.5 kmh 29.09 in985.1 mb 0.00 in0.0 mm 0.00 in0.0 mm 0.73 in18.5 mm
11:00 PM 44.4°F6.9°C 39.0°F3.9°C 81% 1.3 mph W2.1 kmh W 2.2 mph3.5 kmh 29.09 in985.1 mb 0.00 in0.0 mm 0.00 in0.0 mm 0.73 in18.5 mm
11:10 PM 44.8°F7.1°C 39.0°F3.9°C 80% 5.5 mph NW8.9 kmh NW 9.2 mph14.8 kmh 29.09 in985.1 mb 0.00 in0.0 mm 0.00 in0.0 mm 0.73 in18.5 mm
11:20 PM 44.2°F6.8°C 37.5°F3.1°C 77% 1.7 mph WNW2.7 kmh WNW 3.8 mph6.1 kmh 29.09 in985.1 mb 0.00 in0.0 mm 0.00 in0.0 mm 0.73 in18.5 mm
11:30 PM 44.1°F6.7°C 37.0°F2.8°C 76% 2.2 mph N3.5 kmh N 3.8 mph6.1 kmh 29.09 in985.1 mb 0.00 in0.0 mm 0.00 in0.0 mm 0.73 in18.5 mm
11:40 PM 43.5°F6.4°C 36.8°F2.7°C 77% 1.8 mph E2.9 kmh E 3.1 mph5.0 kmh 29.10 in985.4 mb 0.00 in0.0 mm 0.00 in0.0 mm 0.73 in18.5 mm
11:50 PM 43.2°F6.2°C 36.8°F2.7°C 78% 2.4 mph SSE3.9 kmh SSE 3.8 mph6.1 kmh 29.11 in985.8 mb 0.00 in0.0 mm 0.00 in0.0 mm 0.73 in18.5 mm